Airfield :
LOGIN :

Register | Disclaimer

   EN    FR    IT 

 










Legend :    VFR   Marginal VFR   IFR   Intensive IFR   Very Intensive IFR
Visi :
Ceiling :
>= 8 km
>= 3000ft
5 to 8 km
1000 to 3000 ft
1500m to 5 km
500 to 1000 ft
800 to 1500m
200 to 500 ft
< 800m
< 200 ft
Symbols :   Thunderstorms  Fog  Heavy snow  Heavy precipitations  Wind > 20 kt
SIGMETs :     Misc.  Thunderstorms  Icing  Turbulence  Mountain Waves  Volcanic Ashes






- Airport Elevation : 459 ft
- IATA code : CER


LFRC - Cherbourg / Maupertus

CURRENT METAR :
  • 192130Z AUTO 14006KT 5000 -RA BR VV/// ///CB 13/13 Q1009

EXPIRED METARs :
  • 192100Z AUTO 14009KT 1000 0900 R28/1400U BCFG VCTS VV/// ///CB 13/13 Q1009
  • 192030Z AUTO 12009KT 0700 0650 R28/0900N FG VV/// ///CB 13/13 Q1009
  • 192000Z AUTO 12009KT 1200 1000 R28/1600D BR VV/// 13/12 Q1009
  • 191930Z AUTO 12009KT 4000 BR OVC002 13/12 Q1009
  • 191900Z AUTO 11008KT 5000 BR OVC002 13/12 Q1010

TAF AMD TAF LFRC
Valid from the 19 at 16:00 until the 20 at 00:00 UTC


191618Z 1916/1924 07008KT 9999 SCT005 BKN015
TEMPO 1916/1924 4000 SHRA BKN003 BKN025CB
PROB30
TEMPO 1919/1921 VRB15G30KT 2000 TSRA



MET'MAP, your aeronautical weather chart ! - Copyright ORBIFLY December 2007 - Disclaimer

ORBIFLY MET'MAP TEAM :

Programming & Development : Alexandra Zaïnal
Concept & original design : Baudouin d'Aumeries
Assistance for programming : Marc-Olivier Méhu
Technical & hardware support : Manuel Goepfert

Contact : metmap@orbifly.com




SOURCES & CREDITS :

   NOAA